Terminal Aerodrome Forecast
Issued by NWS

Home | Current Version | Previous Version | Text Only | Print | Product List | Glossary On
Versions: 1 2 3 4 5 6 7 8 9 10 11 12 13
000
FTUS41 KBTV 012322
TAFMPV
TAF
KMPV 012322Z 0200/0224 18005KT 2SM -SN BR OVC030
      TEMPO 0200/0204 3SM -SN BR SCT030 OVC040
     FM020600 VRB03KT 2SM -SN BR OVC020
     FM021300 31008G17KT 3SM -SHSN OVC020
     FM021600 30012G25KT 2SM -SHSN OVC035=

USA.gov is the U.S. government's official web portal to all federal, state and local government web resources and services.